createdAt,value
2022-10-03T00:02:39.365Z,14.80
2022-10-03T00:05:17.894Z,14.80
2022-10-03T00:07:57.038Z,14.80
2022-10-03T00:10:27.360Z,14.80
2022-10-03T00:13:03.851Z,14.80
2022-10-03T00:15:44.925Z,14.80
2022-10-03T00:18:14.766Z,14.80
2022-10-03T00:21:01.668Z,14.80
2022-10-03T00:23:36.396Z,14.80
2022-10-03T00:26:23.349Z,14.80
2022-10-03T00:28:57.968Z,14.70
2022-10-03T00:31:25.309Z,14.80
2022-10-03T00:34:10.916Z,14.70
2022-10-03T00:36:38.222Z,14.70
2022-10-03T00:39:22.115Z,14.80
2022-10-03T00:41:55.272Z,14.70
2022-10-03T00:44:28.294Z,14.70
2022-10-03T00:46:55.148Z,14.70
2022-10-03T00:49:40.787Z,14.70
2022-10-03T00:52:27.256Z,14.70
2022-10-03T00:55:34.073Z,14.70
2022-10-03T00:58:01.030Z,14.70
2022-10-03T01:00:29.451Z,14.70
2022-10-03T01:03:04.859Z,14.70
2022-10-03T01:05:39.995Z,14.70
2022-10-03T01:08:18.874Z,14.70
2022-10-03T01:10:56.566Z,14.70
2022-10-03T01:13:26.617Z,14.70
2022-10-03T01:16:12.389Z,14.70
2022-10-03T01:18:58.579Z,14.70
2022-10-03T01:21:32.096Z,14.70
2022-10-03T01:24:31.337Z,14.70
2022-10-03T01:27:16.877Z,14.70
2022-10-03T01:30:20.728Z,14.70
2022-10-03T01:32:47.692Z,14.80
2022-10-03T01:35:27.167Z,14.80
2022-10-03T01:37:58.519Z,14.70
2022-10-03T01:40:26.168Z,14.70
2022-10-03T01:43:04.099Z,14.70
2022-10-03T01:45:40.258Z,14.70
2022-10-03T01:48:15.239Z,14.70
2022-10-03T01:51:00.506Z,14.80
2022-10-03T01:53:38.749Z,14.70
2022-10-03T01:56:05.597Z,14.70
2022-10-03T01:58:43.469Z,14.70
2022-10-03T02:01:24.377Z,14.70
2022-10-03T02:04:04.402Z,14.70
2022-10-03T02:06:45.202Z,14.70
2022-10-03T02:09:12.564Z,14.70
2022-10-03T02:11:42.629Z,14.70
2022-10-03T02:14:31.997Z,14.60
2022-10-03T02:17:17.521Z,14.70
2022-10-03T02:19:56.431Z,14.70
2022-10-03T02:22:32.364Z,14.70
2022-10-03T02:25:13.033Z,14.60
2022-10-03T02:27:55.259Z,14.60
2022-10-03T02:30:35.076Z,14.70
2022-10-03T02:33:25.128Z,14.70
2022-10-03T02:36:07.304Z,14.60
2022-10-03T02:38:40.074Z,14.60
2022-10-03T02:41:25.735Z,14.60
2022-10-03T02:44:02.901Z,14.60
2022-10-03T02:47:08.586Z,14.70
2022-10-03T02:49:35.401Z,14.70
2022-10-03T02:52:02.210Z,14.70
2022-10-03T02:54:38.759Z,14.60
2022-10-03T02:57:28.517Z,14.60
2022-10-03T03:00:04.744Z,14.60
2022-10-03T03:02:45.826Z,14.60
2022-10-03T03:05:12.630Z,14.60
2022-10-03T03:08:03.108Z,14.60
2022-10-03T03:10:48.912Z,14.60
2022-10-03T03:13:15.673Z,14.60
2022-10-03T03:15:48.596Z,14.60
2022-10-03T03:18:22.440Z,14.60
2022-10-03T03:20:51.214Z,14.60
2022-10-03T03:23:24.114Z,14.60
2022-10-03T03:26:00.046Z,14.60
2022-10-03T03:28:55.664Z,14.60
2022-10-03T03:31:43.972Z,14.60
2022-10-03T03:34:29.487Z,14.60
2022-10-03T03:37:10.367Z,14.60
2022-10-03T03:40:00.339Z,14.60
2022-10-03T03:42:30.208Z,14.50
2022-10-03T03:45:15.543Z,14.50
2022-10-03T03:48:00.507Z,14.50
2022-10-03T03:50:34.627Z,14.50
2022-10-03T03:53:13.834Z,14.50
2022-10-03T03:55:59.491Z,14.50
2022-10-03T03:58:33.288Z,14.50
2022-10-03T04:01:06.549Z,14.50
2022-10-03T04:03:43.409Z,14.50
2022-10-03T04:06:36.705Z,14.50
2022-10-03T04:09:22.289Z,14.40
2022-10-03T04:11:54.437Z,14.40
2022-10-03T04:14:39.734Z,14.40
2022-10-03T04:17:34.480Z,14.40
2022-10-03T04:20:11.222Z,14.40
2022-10-03T04:22:38.757Z,14.40
2022-10-03T04:25:20.909Z,14.40
2022-10-03T04:28:12.866Z,14.40
2022-10-03T04:30:58.636Z,14.40
2022-10-03T04:33:25.537Z,14.40
2022-10-03T04:35:52.340Z,14.30
2022-10-03T04:38:35.019Z,14.30
2022-10-03T04:41:01.828Z,14.30
2022-10-03T04:43:34.705Z,14.30
2022-10-03T04:46:12.744Z,14.30
2022-10-03T04:48:45.781Z,14.30
2022-10-03T04:51:18.512Z,14.30
2022-10-03T04:53:56.804Z,14.30
2022-10-03T04:56:26.601Z,14.30
2022-10-03T04:59:00.208Z,14.30
2022-10-03T05:01:45.324Z,14.30
2022-10-03T05:04:27.412Z,14.30
2022-10-03T05:07:01.375Z,14.30
2022-10-03T05:09:49.763Z,14.30
2022-10-03T05:12:35.509Z,14.30
2022-10-03T05:15:12.781Z,14.40
2022-10-03T05:17:45.758Z,14.30
2022-10-03T05:20:12.567Z,14.30
2022-10-03T05:22:44.828Z,14.30
2022-10-03T05:25:30.729Z,14.30
2022-10-03T05:28:16.565Z,14.20
2022-10-03T05:31:04.776Z,14.20
2022-10-03T05:33:31.594Z,14.20
2022-10-03T05:36:16.821Z,14.20
2022-10-03T05:39:02.462Z,14.20
2022-10-03T05:41:35.576Z,14.20
2022-10-03T05:44:05.360Z,14.20
2022-10-03T05:46:32.209Z,14.30
2022-10-03T05:49:09.016Z,14.20
2022-10-03T05:51:54.888Z,14.30
2022-10-03T05:54:40.930Z,14.30
2022-10-03T05:57:21.903Z,14.30
2022-10-03T05:59:48.724Z,14.30
2022-10-03T06:02:35.873Z,14.30
2022-10-03T06:05:12.367Z,14.30
2022-10-03T06:07:57.483Z,14.30
2022-10-03T06:10:36.667Z,14.30
2022-10-03T06:13:35.962Z,14.30
2022-10-03T06:16:38.448Z,14.30
2022-10-03T06:19:23.343Z,14.30
2022-10-03T06:22:09.181Z,14.30
2022-10-03T06:24:49.700Z,14.30
2022-10-03T06:27:19.725Z,14.30
2022-10-03T06:29:57.160Z,14.30
2022-10-03T06:32:33.486Z,14.30
2022-10-03T06:35:19.058Z,14.30
2022-10-03T06:38:01.374Z,14.30
2022-10-03T06:40:40.450Z,14.30
2022-10-03T06:43:10.237Z,14.30
2022-10-03T06:45:56.093Z,14.30
2022-10-03T06:48:35.607Z,14.30
2022-10-03T06:51:17.849Z,14.20
2022-10-03T06:54:01.229Z,14.20
2022-10-03T06:56:50.091Z,14.20
2022-10-03T06:59:26.023Z,14.30
2022-10-03T07:02:11.628Z,14.30
2022-10-03T07:04:38.526Z,14.30
2022-10-03T07:07:05.838Z,14.30
2022-10-03T07:09:38.838Z,14.30
2022-10-03T07:12:26.699Z,14.30
2022-10-03T07:14:56.783Z,14.30
2022-10-03T07:17:23.600Z,14.40
2022-10-03T07:20:09.247Z,14.40
2022-10-03T07:22:48.300Z,14.40
2022-10-03T07:25:25.836Z,14.40
2022-10-03T07:27:59.414Z,14.40
2022-10-03T07:30:32.188Z,14.50
2022-10-03T07:33:17.795Z,14.50
2022-10-03T07:36:08.950Z,14.60
2022-10-03T07:38:54.573Z,14.60
2022-10-03T07:41:40.954Z,14.60
2022-10-03T07:44:23.387Z,14.70
2022-10-03T07:47:04.688Z,14.80
2022-10-03T07:49:31.601Z,14.80
2022-10-03T07:52:05.083Z,14.90
2022-10-03T07:54:32.139Z,14.90
2022-10-03T07:57:00.575Z,14.90
2022-10-03T07:59:33.677Z,15.00
2022-10-03T08:02:26.129Z,15.00
2022-10-03T08:05:48.551Z,15.10
2022-10-03T08:08:46.302Z,15.10
2022-10-03T08:11:39.398Z,15.10
2022-10-03T08:14:40.355Z,15.20
2022-10-03T08:17:25.934Z,15.20
2022-10-03T08:20:39.445Z,15.20
2022-10-03T08:23:25.259Z,15.20
2022-10-03T08:26:23.696Z,15.20
2022-10-03T08:29:28.691Z,15.20
2022-10-03T08:32:15.595Z,15.20
2022-10-03T08:34:47.030Z,15.20
2022-10-03T08:37:13.802Z,15.30
2022-10-03T08:40:12.211Z,15.30
2022-10-03T08:42:57.765Z,15.40
2022-10-03T08:45:25.185Z,15.50
2022-10-03T08:47:58.350Z,15.60
2022-10-03T08:50:34.414Z,15.60
2022-10-03T08:53:39.093Z,15.70
2022-10-03T08:56:47.897Z,15.70
2022-10-03T08:59:43.017Z,15.80
2022-10-03T09:02:42.577Z,16.00
2022-10-03T09:05:49.691Z,16.10
2022-10-03T09:08:40.049Z,16.30
2022-10-03T09:11:17.974Z,16.50
2022-10-03T09:14:00.916Z,16.60
2022-10-03T09:16:54.458Z,16.80
2022-10-03T09:19:33.128Z,17.00
2022-10-03T09:22:28.026Z,17.00
2022-10-03T09:28:55.259Z,16.90
2022-10-03T09:32:00.655Z,16.90
2022-10-03T09:34:41.694Z,16.80
2022-10-03T09:37:38.737Z,16.80
2022-10-03T09:40:54.123Z,16.80
2022-10-03T09:43:35.870Z,16.90
2022-10-03T09:46:33.220Z,16.80
2022-10-03T09:49:41.415Z,16.80
2022-10-03T09:55:52.173Z,16.70
2022-10-03T09:59:02.993Z,16.60
2022-10-03T10:01:53.759Z,16.50
2022-10-03T10:05:01.141Z,16.50
2022-10-03T10:07:47.471Z,16.50
2022-10-03T10:10:27.235Z,16.60
2022-10-03T10:13:13.691Z,16.80
2022-10-03T10:15:53.293Z,16.90
2022-10-03T10:18:47.701Z,17.00
2022-10-03T10:21:35.759Z,17.10
2022-10-03T10:24:21.714Z,17.20
2022-10-03T10:27:09.601Z,17.20
2022-10-03T10:30:14.175Z,17.30
2022-10-03T10:33:18.240Z,17.40
2022-10-03T10:36:14.246Z,17.40
2022-10-03T10:41:57.423Z,17.50
2022-10-03T10:44:43.750Z,17.50
2022-10-03T10:47:52.107Z,17.50
2022-10-03T10:50:47.900Z,17.60
2022-10-03T10:53:47.884Z,17.60
2022-10-03T10:56:32.563Z,17.70
2022-10-03T10:59:22.255Z,17.80
2022-10-03T11:02:01.159Z,17.90
2022-10-03T11:04:34.023Z,17.80
2022-10-03T11:07:25.763Z,17.90
2022-10-03T11:10:09.009Z,18.00
2022-10-03T11:13:03.925Z,18.10
2022-10-03T11:16:03.880Z,18.30
2022-10-03T11:18:50.473Z,18.60
2022-10-03T11:25:12.938Z,19.10
2022-10-03T11:27:58.422Z,19.30
2022-10-03T11:30:34.768Z,19.50
2022-10-03T11:33:11.219Z,19.70
2022-10-03T11:35:54.097Z,19.80
2022-10-03T11:38:20.917Z,19.90
2022-10-03T11:41:06.593Z,20.00
2022-10-03T11:43:42.597Z,20.20
2022-10-03T11:46:24.606Z,20.10
2022-10-03T11:48:54.702Z,20.10
2022-10-03T11:51:43.860Z,20.10
2022-10-03T11:54:30.650Z,20.10
2022-10-03T11:57:04.603Z,20.00
2022-10-03T11:59:31.470Z,20.00
2022-10-03T12:02:18.635Z,20.10
2022-10-03T12:04:45.496Z,20.40
2022-10-03T12:07:31.089Z,20.50
2022-10-03T12:10:16.970Z,20.50
2022-10-03T12:12:45.623Z,20.40
2022-10-03T12:15:31.545Z,20.30
2022-10-03T12:17:58.437Z,20.30
2022-10-03T12:20:28.161Z,20.10
2022-10-03T12:23:04.090Z,20.10
2022-10-03T12:25:32.089Z,20.10
2022-10-03T12:27:58.911Z,20.10
2022-10-03T12:30:27.606Z,20.20
2022-10-03T12:33:00.628Z,20.20
2022-10-03T12:35:46.553Z,20.20
2022-10-03T12:38:33.809Z,20.30
2022-10-03T12:41:09.969Z,20.30
2022-10-03T12:43:39.873Z,20.30
2022-10-03T12:46:09.715Z,20.30
2022-10-03T12:48:49.497Z,20.30
2022-10-03T12:51:16.280Z,20.30
2022-10-03T12:53:44.239Z,20.30
2022-10-03T12:56:11.120Z,20.50
2022-10-03T12:58:50.301Z,21.20
2022-10-03T13:01:32.436Z,22.40
2022-10-03T13:04:07.908Z,23.50
2022-10-03T13:07:02.253Z,23.80
2022-10-03T13:09:46.413Z,23.40
2022-10-03T13:12:16.584Z,22.90
2022-10-03T13:15:03.245Z,22.50
2022-10-03T13:17:49.409Z,22.10
2022-10-03T13:20:23.892Z,21.70
2022-10-03T13:23:04.992Z,21.30
2022-10-03T13:25:41.510Z,21.00
2022-10-03T13:28:13.044Z,20.80
2022-10-03T13:30:43.367Z,20.70
2022-10-03T13:33:18.731Z,20.60
2022-10-03T13:36:05.544Z,20.60
2022-10-03T13:38:36.707Z,20.80
2022-10-03T13:41:24.174Z,22.20
2022-10-03T13:44:02.771Z,23.60
2022-10-03T13:46:32.609Z,24.80
2022-10-03T13:49:02.358Z,25.80
2022-10-03T13:51:40.709Z,26.50
2022-10-03T13:54:15.701Z,27.00
2022-10-03T13:56:48.657Z,26.90
2022-10-03T13:59:15.470Z,26.30
2022-10-03T14:01:42.655Z,25.60
2022-10-03T14:04:15.756Z,24.90
2022-10-03T14:06:48.163Z,24.30
2022-10-03T14:09:18.008Z,23.80
2022-10-03T14:11:56.238Z,23.40
2022-10-03T14:14:34.343Z,22.90
2022-10-03T14:17:09.405Z,22.60
2022-10-03T14:19:36.774Z,22.40
2022-10-03T14:22:09.937Z,22.30
2022-10-03T14:24:37.396Z,22.30
2022-10-03T14:27:10.280Z,22.20
2022-10-03T14:29:51.702Z,22.00
2022-10-03T14:32:45.591Z,21.80
2022-10-03T14:35:24.173Z,21.60
2022-10-03T14:37:53.523Z,21.30
2022-10-03T14:40:27.995Z,21.00
2022-10-03T14:42:59.764Z,20.80
2022-10-03T14:45:29.392Z,20.60
2022-10-03T14:48:05.533Z,20.40
2022-10-03T14:50:33.197Z,20.20
2022-10-03T14:53:08.932Z,20.10
2022-10-03T14:55:47.572Z,20.10
2022-10-03T14:58:20.193Z,20.00
2022-10-03T15:00:55.394Z,20.00
2022-10-03T15:03:30.668Z,19.90
2022-10-03T15:06:02.805Z,19.90
2022-10-03T15:08:33.947Z,19.80
2022-10-03T15:11:00.855Z,19.60
2022-10-03T15:13:28.999Z,19.50
2022-10-03T15:15:56.509Z,19.40
2022-10-03T15:18:24.562Z,19.40
2022-10-03T15:20:52.536Z,19.40
2022-10-03T15:23:22.627Z,19.30
2022-10-03T15:25:53.103Z,19.20
2022-10-03T15:28:27.137Z,19.10
2022-10-03T15:30:55.182Z,19.00
2022-10-03T15:33:22.865Z,18.90
2022-10-03T15:35:52.248Z,18.80
2022-10-03T15:38:25.014Z,18.80
2022-10-03T15:41:07.313Z,18.70
2022-10-03T15:43:47.203Z,18.60
2022-10-03T15:46:29.615Z,18.60
2022-10-03T15:48:59.039Z,18.60
2022-10-03T15:51:26.929Z,18.50
2022-10-03T15:53:58.396Z,18.40
2022-10-03T15:56:46.259Z,18.40
2022-10-03T15:59:27.482Z,18.40
2022-10-03T16:01:55.669Z,18.40
2022-10-03T16:04:22.721Z,18.30
2022-10-03T16:07:03.367Z,18.30
2022-10-03T16:09:39.578Z,18.20
2022-10-03T16:12:06.325Z,18.20
2022-10-03T16:14:44.789Z,18.20
2022-10-03T16:17:16.630Z,18.10
2022-10-03T16:19:55.066Z,18.10
2022-10-03T16:22:24.981Z,18.00
2022-10-03T16:25:01.623Z,17.90
2022-10-03T16:27:30.071Z,17.90
2022-10-03T16:30:09.151Z,17.80
2022-10-03T16:32:59.341Z,17.80
2022-10-03T16:35:35.406Z,17.70
2022-10-03T16:38:04.431Z,17.60
2022-10-03T16:40:31.457Z,17.60
2022-10-03T16:42:59.088Z,17.60
2022-10-03T16:45:44.131Z,17.50
2022-10-03T16:48:49.800Z,17.50
2022-10-03T16:51:46.008Z,17.50
2022-10-03T16:54:17.735Z,17.50
2022-10-03T16:56:51.128Z,17.50
2022-10-03T16:59:19.317Z,17.40
2022-10-03T17:02:14.758Z,17.40
2022-10-03T17:04:46.148Z,17.40
2022-10-03T17:07:13.034Z,17.40
2022-10-03T17:09:44.234Z,17.40
2022-10-03T17:12:20.152Z,17.30
2022-10-03T17:14:48.238Z,17.30
2022-10-03T17:17:28.911Z,17.20
2022-10-03T17:20:00.353Z,17.20
2022-10-03T17:22:41.144Z,17.10
2022-10-03T17:25:31.216Z,17.00
2022-10-03T17:28:10.623Z,16.90
2022-10-03T17:31:04.823Z,16.80
2022-10-03T17:33:58.279Z,16.70
2022-10-03T17:36:35.029Z,16.50
2022-10-03T17:39:25.538Z,16.40
2022-10-03T17:41:57.683Z,16.30
2022-10-03T17:44:47.669Z,16.10
2022-10-03T17:47:48.824Z,16.00
2022-10-03T17:50:46.865Z,15.90
2022-10-03T17:59:42.832Z,15.60
2022-10-03T18:02:20.571Z,15.50
2022-10-03T18:04:53.320Z,15.40
2022-10-03T18:07:22.946Z,15.40
2022-10-03T18:09:54.518Z,15.30
2022-10-03T18:12:40.361Z,15.30
2022-10-03T18:15:22.672Z,15.20
2022-10-03T18:18:01.042Z,15.10
2022-10-03T18:20:37.192Z,15.00
2022-10-03T18:23:06.428Z,15.00
2022-10-03T18:26:21.000Z,14.90
2022-10-03T18:28:50.211Z,14.90
2022-10-03T18:31:17.126Z,14.80
2022-10-03T18:33:52.159Z,14.70
2022-10-03T18:36:22.741Z,14.70
2022-10-03T18:38:51.178Z,14.70
2022-10-03T18:41:19.254Z,14.60
2022-10-03T18:43:51.098Z,14.60
2022-10-03T18:46:21.238Z,14.50
2022-10-03T18:52:10.577Z,14.50
2022-10-03T18:54:40.491Z,14.40
2022-10-03T18:57:11.150Z,14.30
2022-10-03T18:59:45.378Z,14.30
2022-10-03T19:02:16.571Z,14.30
2022-10-03T19:04:45.759Z,14.30
2022-10-03T19:07:23.002Z,14.20
2022-10-03T19:13:25.706Z,14.10
2022-10-03T19:16:08.869Z,14.10
2022-10-03T19:18:53.990Z,14.10
2022-10-03T19:21:22.547Z,14.00
2022-10-03T19:23:51.964Z,14.00
2022-10-03T19:26:20.671Z,14.00
2022-10-03T19:28:52.915Z,13.90
2022-10-03T19:31:26.208Z,13.90
2022-10-03T19:33:58.350Z,13.90
2022-10-03T19:36:34.644Z,13.80
2022-10-03T19:39:02.535Z,13.70
2022-10-03T19:42:01.875Z,13.70
2022-10-03T19:44:28.852Z,13.70
2022-10-03T19:46:55.732Z,13.70
2022-10-03T19:49:33.389Z,13.60
2022-10-03T19:52:16.014Z,13.60
2022-10-03T19:54:45.789Z,13.60
2022-10-03T19:57:17.173Z,13.60
2022-10-03T19:59:45.413Z,13.50
2022-10-03T20:02:12.343Z,13.50
2022-10-03T20:04:39.762Z,13.50
2022-10-03T20:07:26.816Z,13.50
2022-10-03T20:09:58.315Z,13.50
2022-10-03T20:12:27.821Z,13.40
2022-10-03T20:14:57.994Z,13.40
2022-10-03T20:17:25.132Z,13.40
2022-10-03T20:20:02.565Z,13.30
2022-10-03T20:22:36.257Z,13.30
2022-10-03T20:25:05.493Z,13.30
2022-10-03T20:27:43.131Z,13.30
2022-10-03T20:30:19.161Z,13.20
2022-10-03T20:32:46.320Z,13.20
2022-10-03T20:35:22.034Z,13.20
2022-10-03T20:37:52.039Z,13.10
2022-10-03T20:40:25.854Z,13.10
2022-10-03T20:42:56.474Z,13.10
2022-10-03T20:45:24.596Z,13.10
2022-10-03T20:48:07.728Z,13.00
2022-10-03T20:50:34.620Z,13.00
2022-10-03T20:53:02.449Z,12.90
2022-10-03T20:55:36.141Z,12.90
2022-10-03T20:58:26.681Z,12.90
2022-10-03T21:00:59.372Z,12.80
2022-10-03T21:03:33.553Z,12.80
2022-10-03T21:06:04.377Z,12.80
2022-10-03T21:08:36.635Z,12.80
2022-10-03T21:11:04.865Z,12.70
2022-10-03T21:13:31.955Z,12.70
2022-10-03T21:16:00.417Z,12.70
2022-10-03T21:18:30.671Z,12.60
2022-10-03T21:21:10.903Z,12.60
2022-10-03T21:23:50.181Z,12.60
2022-10-03T21:26:24.846Z,12.60
2022-10-03T21:29:11.670Z,12.60
2022-10-03T21:31:43.132Z,12.50
2022-10-03T21:34:19.447Z,12.50
2022-10-03T21:36:46.200Z,12.50
2022-10-03T21:39:28.373Z,12.50
2022-10-03T21:42:01.257Z,12.40
2022-10-03T21:44:28.163Z,12.40
2022-10-03T21:47:13.760Z,12.40
2022-10-03T21:49:43.453Z,12.30
2022-10-03T21:52:31.953Z,12.30
2022-10-03T21:55:08.316Z,12.30
2022-10-03T21:57:41.472Z,12.20
2022-10-03T22:00:10.468Z,12.20
2022-10-03T22:02:49.661Z,12.20
2022-10-03T22:05:35.316Z,12.20
2022-10-03T22:08:31.601Z,12.10
2022-10-03T22:11:18.690Z,12.10
2022-10-03T22:13:54.032Z,12.10
2022-10-03T22:16:23.950Z,12.00
2022-10-03T22:18:56.959Z,12.00
2022-10-03T22:21:25.858Z,12.00
2022-10-03T22:24:07.897Z,11.90
2022-10-03T22:26:59.357Z,11.90
2022-10-03T22:29:35.064Z,11.90
2022-10-03T22:32:20.593Z,11.80
2022-10-03T22:35:08.502Z,11.80
2022-10-03T22:37:35.721Z,11.80
2022-10-03T22:40:03.295Z,11.70
2022-10-03T22:42:33.846Z,11.70
2022-10-03T22:45:02.521Z,11.70
2022-10-03T22:47:30.988Z,11.70
2022-10-03T22:50:00.447Z,11.70
2022-10-03T22:52:28.576Z,11.60
2022-10-03T22:54:56.009Z,11.60
2022-10-03T22:57:23.741Z,11.60
2022-10-03T22:59:54.706Z,11.60
2022-10-03T23:02:27.107Z,11.60
2022-10-03T23:04:56.168Z,11.60
2022-10-03T23:07:26.575Z,11.60
2022-10-03T23:10:16.823Z,11.50
2022-10-03T23:13:03.846Z,11.50
2022-10-03T23:15:32.233Z,11.50
2022-10-03T23:18:10.104Z,11.50
2022-10-03T23:20:49.067Z,11.50
2022-10-03T23:23:29.004Z,11.40
2022-10-03T23:26:01.867Z,11.50
2022-10-03T23:28:28.737Z,11.40
2022-10-03T23:30:55.653Z,11.40
2022-10-03T23:33:32.532Z,11.40
2022-10-03T23:36:19.619Z,11.30
2022-10-03T23:38:46.431Z,11.30
2022-10-03T23:41:14.677Z,11.30
2022-10-03T23:43:44.736Z,11.30
2022-10-03T23:46:13.461Z,11.30
2022-10-03T23:48:43.683Z,11.30
2022-10-03T23:51:12.795Z,11.30
2022-10-03T23:53:41.850Z,11.20
2022-10-03T23:56:21.286Z,11.20
2022-10-03T23:58:56.021Z,11.10
